Burlington, CO

2:46 AM MDT on September 21, 2014 (GMT -0600)
Kit Carson County | Change Station
CLOSE
Current Station
Airport
Location: Burlington,
Elevation: 4216 ft
Nearby Weather Stations

Elev 4216 ft 39.24 °N, 102.28 °W | Updated 53 minutes ago

Clear
Clear
60 °F
Feels Like 60 °F
N
8
Wind Variable Wind from ENE

Today
High -- | Low -- °F
--% Chance of Precip.
Yesterday
High -- | Low -- °F
Precip. -- in
6:35 AM 6:47 PM
Waning Crescent, 8% visible
Pressure 30.15 in
Visibility 10.0 miles
Clouds Clear
Dew Point 46 °F
Humidity 60%
Rainfall 0.00 in
Snow Depth Not available.
UV 0 out of 12
Pollen 6.10 out of 12
Air Quality Not available.
Flu Activity Not available.
METAR KITR 210753Z AUTO 06007KT 10SM CLR 16/08 A3030 RMK AO2 SLP209 T01560078

More Conditions Fewer Conditions

Pressure 30.15 in
Visibility 10.0 miles
Clouds Clear
Dew Point 46 °F
Humidity 60%
Rainfall 0.00 in
Snow Depth Not available.
UV 0 out of 12
Pollen 6.10 out of 12
Air Quality Not available.
Flu Activity Not available.
METAR KITR 210753Z AUTO 06007KT 10SM CLR 16/08 A3030 RMK AO2 SLP209 T01560078

More Conditions Fewer Conditions

10-Day Weather Forecast

Almanac

Astronomy

Sep. 21, 2014 Rise Set
Actual Time 6:35 AM MDT 6:47 PM MDT
Civil Twilight 6:08 AM MDT 7:14 PM MDT
Nautical Twilight 5:37 AM MDT 7:45 PM MDT
Astronomical Twilight 5:05 AM MDT 8:17 PM MDT
Moon 4:12 AM MDT 5:24 PM MDT
Length of Visible Light 13h 05m
Length of Day
12h 11m
Tomorrow will be 2m 33s shorter.
Waning Crescent, 8% of the Moon is Illuminated
Today
Waning Crescent
Sep 24
New
Oct 1
First Quarter
Oct 8
Full
Oct 15
Last Quarter

Today's Extremes

State Highs State Lows

Community

WunderPhotos

Upload Photos

1,755,100 photos uploaded!

Nearby

Snow Depth

Station Depth Elevation
Wolf Creek Summit 0 in 11000 ft
Zirkel 0 in 9340 ft
Ivanhoe 0 in 10400 ft
Columbine Pass 0 in 9400 ft
Vail Mountain 86 in 10300 ft

Earthquake Activity

City Distance Mag. Time & Date
No recent earthquake activity has been reported nearby.
Minimum magnitude displayed is 2.5.

Coastal Water Temperatures

Place Temperature
No Stations Reporting

Nearby Weather Stations